sensor_id;sensor_type;location;lat;lon;timestamp;P1;durP1;ratioP1;P2;durP2;ratioP2
54919;SDS011;63804;53.120;8.764;2023-08-07T00:01:24;6.28;;;2.35;;
54919;SDS011;63804;53.120;8.764;2023-08-07T00:03:51;5.45;;;2.35;;
54919;SDS011;63804;53.120;8.764;2023-08-07T00:06:19;5.97;;;2.58;;
54919;SDS011;63804;53.120;8.764;2023-08-07T00:08:46;6.35;;;2.53;;
54919;SDS011;63804;53.120;8.764;2023-08-07T00:11:14;5.70;;;2.78;;
54919;SDS011;63804;53.120;8.764;2023-08-07T00:13:41;8.02;;;2.92;;
54919;SDS011;63804;53.120;8.764;2023-08-07T00:16:08;8.05;;;2.92;;
54919;SDS011;63804;53.120;8.764;2023-08-07T00:18:37;7.30;;;2.92;;
54919;SDS011;63804;53.120;8.764;2023-08-07T00:21:04;7.38;;;3.20;;
54919;SDS011;63804;53.120;8.764;2023-08-07T00:23:32;6.25;;;3.30;;
54919;SDS011;63804;53.120;8.764;2023-08-07T00:25:59;12.68;;;4.05;;
54919;SDS011;63804;53.120;8.764;2023-08-07T00:28:27;7.35;;;3.33;;
54919;SDS011;63804;53.120;8.764;2023-08-07T00:30:56;9.30;;;4.10;;
54919;SDS011;63804;53.120;8.764;2023-08-07T00:33:23;11.13;;;3.70;;
54919;SDS011;63804;53.120;8.764;2023-08-07T00:35:51;10.07;;;3.88;;
54919;SDS011;63804;53.120;8.764;2023-08-07T00:38:18;9.38;;;3.50;;
54919;SDS011;63804;53.120;8.764;2023-08-07T00:40:45;8.50;;;3.40;;
54919;SDS011;63804;53.120;8.764;2023-08-07T00:43:13;8.95;;;4.00;;
54919;SDS011;63804;53.120;8.764;2023-08-07T00:45:41;7.93;;;3.60;;
54919;SDS011;63804;53.120;8.764;2023-08-07T00:48:10;7.72;;;3.55;;
54919;SDS011;63804;53.120;8.764;2023-08-07T00:50:39;9.95;;;4.00;;
54919;SDS011;63804;53.120;8.764;2023-08-07T00:53:13;9.77;;;4.07;;
54919;SDS011;63804;53.120;8.764;2023-08-07T00:55:41;9.43;;;3.90;;
54919;SDS011;63804;53.120;8.764;2023-08-07T00:58:10;7.68;;;3.78;;
54919;SDS011;63804;53.120;8.764;2023-08-07T01:00:37;8.18;;;3.35;;
54919;SDS011;63804;53.120;8.764;2023-08-07T01:03:05;11.48;;;4.40;;
54919;SDS011;63804;53.120;8.764;2023-08-07T01:05:34;12.57;;;4.32;;
54919;SDS011;63804;53.120;8.764;2023-08-07T01:08:01;11.73;;;4.03;;
54919;SDS011;63804;53.120;8.764;2023-08-07T01:10:41;10.05;;;4.10;;
54919;SDS011;63804;53.120;8.764;2023-08-07T01:13:25;11.60;;;4.45;;
54919;SDS011;63804;53.120;8.764;2023-08-07T01:15:58;12.43;;;3.85;;
54919;SDS011;63804;53.120;8.764;2023-08-07T01:18:28;10.73;;;4.53;;
54919;SDS011;63804;53.120;8.764;2023-08-07T01:20:57;10.88;;;4.13;;
54919;SDS011;63804;53.120;8.764;2023-08-07T01:23:25;7.05;;;3.95;;
54919;SDS011;63804;53.120;8.764;2023-08-07T01:25:52;10.48;;;4.10;;
54919;SDS011;63804;53.120;8.764;2023-08-07T01:28:30;10.88;;;4.20;;
54919;SDS011;63804;53.120;8.764;2023-08-07T01:31:04;10.02;;;4.13;;
54919;SDS011;63804;53.120;8.764;2023-08-07T01:33:43;9.60;;;3.85;;
54919;SDS011;63804;53.120;8.764;2023-08-07T01:36:21;10.80;;;4.10;;
54919;SDS011;63804;53.120;8.764;2023-08-07T01:38:51;10.88;;;4.50;;
54919;SDS011;63804;53.120;8.764;2023-08-07T01:41:21;9.02;;;4.25;;
54919;SDS011;63804;53.120;8.764;2023-08-07T01:43:48;9.43;;;4.30;;
54919;SDS011;63804;53.120;8.764;2023-08-07T01:46:16;13.80;;;5.38;;
54919;SDS011;63804;53.120;8.764;2023-08-07T01:48:44;12.73;;;5.10;;
54919;SDS011;63804;53.120;8.764;2023-08-07T01:51:12;12.10;;;5.03;;
54919;SDS011;63804;53.120;8.764;2023-08-07T01:53:39;12.50;;;4.70;;
54919;SDS011;63804;53.120;8.764;2023-08-07T01:56:06;12.93;;;4.70;;
54919;SDS011;63804;53.120;8.764;2023-08-07T01:58:34;13.52;;;4.68;;
54919;SDS011;63804;53.120;8.764;2023-08-07T02:01:01;10.68;;;4.65;;
54919;SDS011;63804;53.120;8.764;2023-08-07T02:03:28;10.70;;;4.68;;
54919;SDS011;63804;53.120;8.764;2023-08-07T02:05:56;10.88;;;4.47;;
54919;SDS011;63804;53.120;8.764;2023-08-07T02:08:23;11.07;;;4.45;;
54919;SDS011;63804;53.120;8.764;2023-08-07T02:10:51;11.88;;;4.85;;
54919;SDS011;63804;53.120;8.764;2023-08-07T02:13:18;12.38;;;4.88;;
54919;SDS011;63804;53.120;8.764;2023-08-07T02:15:45;11.93;;;4.68;;
54919;SDS011;63804;53.120;8.764;2023-08-07T02:18:13;7.40;;;4.10;;
54919;SDS011;63804;53.120;8.764;2023-08-07T02:20:40;10.95;;;4.43;;
54919;SDS011;63804;53.120;8.764;2023-08-07T02:23:07;8.52;;;4.30;;
54919;SDS011;63804;53.120;8.764;2023-08-07T02:25:34;8.80;;;4.00;;
54919;SDS011;63804;53.120;8.764;2023-08-07T02:28:02;9.00;;;4.28;;
54919;SDS011;63804;53.120;8.764;2023-08-07T02:30:30;7.97;;;4.68;;
54919;SDS011;63804;53.120;8.764;2023-08-07T02:32:58;9.13;;;4.25;;
54919;SDS011;63804;53.120;8.764;2023-08-07T02:35:25;6.90;;;3.70;;
54919;SDS011;63804;53.120;8.764;2023-08-07T02:37:52;9.15;;;4.10;;
54919;SDS011;63804;53.120;8.764;2023-08-07T02:40:20;8.40;;;4.40;;
54919;SDS011;63804;53.120;8.764;2023-08-07T02:42:47;8.75;;;4.13;;
54919;SDS011;63804;53.120;8.764;2023-08-07T02:45:14;11.80;;;4.50;;
54919;SDS011;63804;53.120;8.764;2023-08-07T02:47:42;9.40;;;3.78;;
54919;SDS011;63804;53.120;8.764;2023-08-07T02:50:09;6.80;;;3.63;;
54919;SDS011;63804;53.120;8.764;2023-08-07T02:52:36;10.35;;;4.57;;
54919;SDS011;63804;53.120;8.764;2023-08-07T02:55:04;7.22;;;3.72;;
54919;SDS011;63804;53.120;8.764;2023-08-07T02:57:32;10.65;;;3.70;;
54919;SDS011;63804;53.120;8.764;2023-08-07T02:59:59;12.00;;;4.25;;
54919;SDS011;63804;53.120;8.764;2023-08-07T03:02:26;10.35;;;3.92;;
54919;SDS011;63804;53.120;8.764;2023-08-07T03:04:53;10.45;;;4.40;;
54919;SDS011;63804;53.120;8.764;2023-08-07T03:07:21;9.98;;;4.18;;
54919;SDS011;63804;53.120;8.764;2023-08-07T03:09:48;7.57;;;4.20;;
54919;SDS011;63804;53.120;8.764;2023-08-07T03:12:16;7.47;;;3.83;;
54919;SDS011;63804;53.120;8.764;2023-08-07T03:14:43;7.45;;;3.95;;
54919;SDS011;63804;53.120;8.764;2023-08-07T03:17:10;8.07;;;3.85;;
54919;SDS011;63804;53.120;8.764;2023-08-07T03:19:39;7.45;;;3.70;;
54919;SDS011;63804;53.120;8.764;2023-08-07T03:22:09;8.40;;;3.80;;
54919;SDS011;63804;53.120;8.764;2023-08-07T03:24:36;8.02;;;3.85;;
54919;SDS011;63804;53.120;8.764;2023-08-07T03:27:04;9.05;;;3.55;;
54919;SDS011;63804;53.120;8.764;2023-08-07T03:29:31;10.77;;;3.90;;
54919;SDS011;63804;53.120;8.764;2023-08-07T03:31:59;7.15;;;3.60;;
54919;SDS011;63804;53.120;8.764;2023-08-07T03:34:26;9.20;;;4.30;;
54919;SDS011;63804;53.120;8.764;2023-08-07T03:36:53;8.20;;;3.28;;
54919;SDS011;63804;53.120;8.764;2023-08-07T03:39:21;9.50;;;3.78;;
54919;SDS011;63804;53.120;8.764;2023-08-07T03:41:48;6.78;;;3.55;;
54919;SDS011;63804;53.120;8.764;2023-08-07T03:44:16;7.93;;;3.70;;
54919;SDS011;63804;53.120;8.764;2023-08-07T03:46:43;9.20;;;4.22;;
54919;SDS011;63804;53.120;8.764;2023-08-07T03:49:10;6.72;;;3.10;;
54919;SDS011;63804;53.120;8.764;2023-08-07T03:51:38;9.30;;;3.08;;
54919;SDS011;63804;53.120;8.764;2023-08-07T03:54:05;7.80;;;2.85;;
54919;SDS011;63804;53.120;8.764;2023-08-07T03:56:32;6.15;;;2.83;;
54919;SDS011;63804;53.120;8.764;2023-08-07T03:59:03;8.25;;;3.25;;
54919;SDS011;63804;53.120;8.764;2023-08-07T04:01:30;7.63;;;3.03;;
54919;SDS011;63804;53.120;8.764;2023-08-07T04:03:58;9.20;;;3.50;;
54919;SDS011;63804;53.120;8.764;2023-08-07T04:06:25;7.63;;;3.15;;
54919;SDS011;63804;53.120;8.764;2023-08-07T04:08:54;7.65;;;3.03;;
54919;SDS011;63804;53.120;8.764;2023-08-07T04:11:21;6.72;;;2.70;;
54919;SDS011;63804;53.120;8.764;2023-08-07T04:13:48;8.13;;;2.20;;
54919;SDS011;63804;53.120;8.764;2023-08-07T04:16:16;5.18;;;2.28;;
54919;SDS011;63804;53.120;8.764;2023-08-07T04:18:44;6.18;;;2.20;;
54919;SDS011;63804;53.120;8.764;2023-08-07T04:21:11;5.88;;;2.25;;
54919;SDS011;63804;53.120;8.764;2023-08-07T04:23:38;5.85;;;2.28;;
54919;SDS011;63804;53.120;8.764;2023-08-07T04:26:09;5.43;;;2.22;;
54919;SDS011;63804;53.120;8.764;2023-08-07T04:28:36;4.70;;;2.22;;
54919;SDS011;63804;53.120;8.764;2023-08-07T04:31:03;6.05;;;2.55;;
54919;SDS011;63804;53.120;8.764;2023-08-07T04:33:31;5.35;;;2.25;;
54919;SDS011;63804;53.120;8.764;2023-08-07T04:35:58;4.22;;;2.28;;
54919;SDS011;63804;53.120;8.764;2023-08-07T04:38:25;7.45;;;2.00;;
54919;SDS011;63804;53.120;8.764;2023-08-07T04:40:53;5.68;;;2.40;;
54919;SDS011;63804;53.120;8.764;2023-08-07T04:43:20;5.72;;;2.92;;
54919;SDS011;63804;53.120;8.764;2023-08-07T04:45:48;7.30;;;3.05;;
54919;SDS011;63804;53.120;8.764;2023-08-07T04:48:16;7.68;;;2.60;;
54919;SDS011;63804;53.120;8.764;2023-08-07T04:50:45;5.97;;;2.80;;
54919;SDS011;63804;53.120;8.764;2023-08-07T04:53:12;10.43;;;3.75;;
54919;SDS011;63804;53.120;8.764;2023-08-07T04:55:39;10.90;;;4.60;;
54919;SDS011;63804;53.120;8.764;2023-08-07T04:58:07;9.05;;;3.65;;
54919;SDS011;63804;53.120;8.764;2023-08-07T05:00:34;7.53;;;3.28;;
54919;SDS011;63804;53.120;8.764;2023-08-07T05:03:02;8.15;;;2.85;;
54919;SDS011;63804;53.120;8.764;2023-08-07T05:05:30;4.28;;;1.83;;
54919;SDS011;63804;53.120;8.764;2023-08-07T05:07:58;5.35;;;2.13;;
54919;SDS011;63804;53.120;8.764;2023-08-07T05:10:25;3.63;;;1.90;;
54919;SDS011;63804;53.120;8.764;2023-08-07T05:12:53;7.30;;;2.13;;
54919;SDS011;63804;53.120;8.764;2023-08-07T05:15:23;6.93;;;1.90;;
54919;SDS011;63804;53.120;8.764;2023-08-07T05:17:51;4.63;;;1.85;;
54919;SDS011;63804;53.120;8.764;2023-08-07T05:20:19;4.45;;;1.80;;
54919;SDS011;63804;53.120;8.764;2023-08-07T05:22:46;4.50;;;1.90;;
54919;SDS011;63804;53.120;8.764;2023-08-07T05:25:15;5.60;;;1.95;;
54919;SDS011;63804;53.120;8.764;2023-08-07T05:27:43;5.72;;;2.15;;
54919;SDS011;63804;53.120;8.764;2023-08-07T05:30:12;7.82;;;2.10;;
54919;SDS011;63804;53.120;8.764;2023-08-07T05:32:39;5.65;;;1.83;;
54919;SDS011;63804;53.120;8.764;2023-08-07T05:35:07;6.05;;;1.88;;
54919;SDS011;63804;53.120;8.764;2023-08-07T05:37:35;4.45;;;1.92;;
54919;SDS011;63804;53.120;8.764;2023-08-07T05:40:03;7.88;;;2.47;;
54919;SDS011;63804;53.120;8.764;2023-08-07T05:42:31;6.32;;;2.00;;
54919;SDS011;63804;53.120;8.764;2023-08-07T05:44:59;6.32;;;2.10;;
54919;SDS011;63804;53.120;8.764;2023-08-07T05:47:26;6.35;;;1.80;;
54919;SDS011;63804;53.120;8.764;2023-08-07T05:49:54;7.53;;;1.70;;
54919;SDS011;63804;53.120;8.764;2023-08-07T05:52:21;8.98;;;2.10;;
54919;SDS011;63804;53.120;8.764;2023-08-07T05:54:48;5.93;;;1.63;;
54919;SDS011;63804;53.120;8.764;2023-08-07T05:57:17;7.75;;;1.60;;
54919;SDS011;63804;53.120;8.764;2023-08-07T05:59:44;14.15;;;2.20;;
54919;SDS011;63804;53.120;8.764;2023-08-07T06:02:12;7.47;;;1.80;;
54919;SDS011;63804;53.120;8.764;2023-08-07T06:04:39;8.25;;;2.42;;
54919;SDS011;63804;53.120;8.764;2023-08-07T06:07:08;7.70;;;1.98;;
54919;SDS011;63804;53.120;8.764;2023-08-07T06:09:35;6.85;;;1.90;;
54919;SDS011;63804;53.120;8.764;2023-08-07T06:12:03;6.97;;;2.13;;
54919;SDS011;63804;53.120;8.764;2023-08-07T06:14:30;8.10;;;2.28;;
54919;SDS011;63804;53.120;8.764;2023-08-07T06:16:57;8.85;;;2.10;;
54919;SDS011;63804;53.120;8.764;2023-08-07T06:19:27;13.68;;;2.15;;
54919;SDS011;63804;53.120;8.764;2023-08-07T06:21:59;10.27;;;2.25;;
54919;SDS011;63804;53.120;8.764;2023-08-07T06:24:28;7.93;;;2.08;;
54919;SDS011;63804;53.120;8.764;2023-08-07T06:26:55;11.63;;;2.33;;
54919;SDS011;63804;53.120;8.764;2023-08-07T06:38:28;11.45;;;2.42;;
54919;SDS011;63804;53.120;8.764;2023-08-07T06:40:56;8.75;;;2.40;;
54919;SDS011;63804;53.120;8.764;2023-08-07T06:43:23;11.93;;;2.88;;
54919;SDS011;63804;53.120;8.764;2023-08-07T06:45:51;10.55;;;2.40;;
54919;SDS011;63804;53.120;8.764;2023-08-07T06:48:22;10.40;;;2.67;;
54919;SDS011;63804;53.120;8.764;2023-08-07T06:50:51;11.15;;;2.80;;
54919;SDS011;63804;53.120;8.764;2023-08-07T06:53:19;8.55;;;2.28;;
54919;SDS011;63804;53.120;8.764;2023-08-07T06:55:46;10.80;;;2.75;;
54919;SDS011;63804;53.120;8.764;2023-08-07T06:58:14;10.65;;;2.60;;
54919;SDS011;63804;53.120;8.764;2023-08-07T07:00:41;9.00;;;2.58;;
54919;SDS011;63804;53.120;8.764;2023-08-07T07:03:08;8.88;;;2.42;;
54919;SDS011;63804;53.120;8.764;2023-08-07T07:05:37;8.63;;;2.65;;
54919;SDS011;63804;53.120;8.764;2023-08-07T07:08:04;12.15;;;3.03;;
54919;SDS011;63804;53.120;8.764;2023-08-07T07:10:31;10.70;;;3.20;;
54919;SDS011;63804;53.120;8.764;2023-08-07T07:12:59;9.65;;;3.28;;
54919;SDS011;63804;53.120;8.764;2023-08-07T07:15:26;10.40;;;3.55;;
54919;SDS011;63804;53.120;8.764;2023-08-07T07:17:54;12.68;;;3.40;;
54919;SDS011;63804;53.120;8.764;2023-08-07T07:20:21;9.57;;;2.70;;
54919;SDS011;63804;53.120;8.764;2023-08-07T07:22:48;11.88;;;2.80;;
54919;SDS011;63804;53.120;8.764;2023-08-07T07:25:16;11.15;;;2.83;;
54919;SDS011;63804;53.120;8.764;2023-08-07T07:27:43;9.32;;;2.72;;
54919;SDS011;63804;53.120;8.764;2023-08-07T07:30:11;12.82;;;2.60;;
54919;SDS011;63804;53.120;8.764;2023-08-07T07:32:38;11.60;;;3.03;;
54919;SDS011;63804;53.120;8.764;2023-08-07T07:35:06;10.10;;;2.83;;
54919;SDS011;63804;53.120;8.764;2023-08-07T07:37:34;8.70;;;2.72;;
54919;SDS011;63804;53.120;8.764;2023-08-07T07:40:01;14.60;;;3.22;;
54919;SDS011;63804;53.120;8.764;2023-08-07T07:42:29;12.88;;;3.85;;
54919;SDS011;63804;53.120;8.764;2023-08-07T07:44:57;10.23;;;3.17;;
54919;SDS011;63804;53.120;8.764;2023-08-07T07:47:24;12.38;;;3.15;;
54919;SDS011;63804;53.120;8.764;2023-08-07T07:50:03;15.55;;;3.35;;
54919;SDS011;63804;53.120;8.764;2023-08-07T07:52:33;13.35;;;3.60;;
54919;SDS011;63804;53.120;8.764;2023-08-07T07:55:01;10.85;;;3.53;;
54919;SDS011;63804;53.120;8.764;2023-08-07T07:57:29;15.02;;;3.20;;
54919;SDS011;63804;53.120;8.764;2023-08-07T07:59:56;14.77;;;3.40;;
54919;SDS011;63804;53.120;8.764;2023-08-07T08:02:24;13.90;;;3.05;;
54919;SDS011;63804;53.120;8.764;2023-08-07T08:04:51;12.13;;;3.08;;
54919;SDS011;63804;53.120;8.764;2023-08-07T08:07:19;13.05;;;3.05;;
54919;SDS011;63804;53.120;8.764;2023-08-07T08:09:47;13.20;;;3.30;;
54919;SDS011;63804;53.120;8.764;2023-08-07T08:12:14;10.43;;;2.72;;
54919;SDS011;63804;53.120;8.764;2023-08-07T08:14:41;10.73;;;2.50;;
54919;SDS011;63804;53.120;8.764;2023-08-07T08:17:29;10.93;;;3.13;;
54919;SDS011;63804;53.120;8.764;2023-08-07T08:19:56;8.32;;;2.47;;
54919;SDS011;63804;53.120;8.764;2023-08-07T08:22:24;11.48;;;2.60;;
54919;SDS011;63804;53.120;8.764;2023-08-07T08:24:51;15.48;;;3.40;;
54919;SDS011;63804;53.120;8.764;2023-08-07T08:27:18;9.38;;;2.65;;
54919;SDS011;63804;53.120;8.764;2023-08-07T08:29:46;11.55;;;2.75;;
54919;SDS011;63804;53.120;8.764;2023-08-07T08:32:13;15.13;;;2.95;;
54919;SDS011;63804;53.120;8.764;2023-08-07T08:34:41;11.07;;;2.78;;
54919;SDS011;63804;53.120;8.764;2023-08-07T08:37:08;11.85;;;2.70;;
54919;SDS011;63804;53.120;8.764;2023-08-07T08:39:37;13.02;;;2.83;;
54919;SDS011;63804;53.120;8.764;2023-08-07T08:42:04;13.35;;;2.95;;
54919;SDS011;63804;53.120;8.764;2023-08-07T08:44:32;10.40;;;2.58;;
54919;SDS011;63804;53.120;8.764;2023-08-07T08:47:06;7.63;;;2.50;;
54919;SDS011;63804;53.120;8.764;2023-08-07T08:49:37;11.55;;;2.65;;
54919;SDS011;63804;53.120;8.764;2023-08-07T08:52:13;12.75;;;2.60;;
54919;SDS011;63804;53.120;8.764;2023-08-07T08:54:41;11.05;;;2.80;;
54919;SDS011;63804;53.120;8.764;2023-08-07T08:57:08;11.50;;;2.75;;
54919;SDS011;63804;53.120;8.764;2023-08-07T08:59:38;10.30;;;2.47;;
54919;SDS011;63804;53.120;8.764;2023-08-07T09:02:07;13.00;;;2.60;;
54919;SDS011;63804;53.120;8.764;2023-08-07T09:04:36;10.52;;;2.25;;
54919;SDS011;63804;53.120;8.764;2023-08-07T09:07:03;11.20;;;2.67;;
54919;SDS011;63804;53.120;8.764;2023-08-07T09:09:31;13.68;;;3.15;;
54919;SDS011;63804;53.120;8.764;2023-08-07T09:11:59;12.98;;;3.25;;
54919;SDS011;63804;53.120;8.764;2023-08-07T09:14:29;11.25;;;2.60;;
54919;SDS011;63804;53.120;8.764;2023-08-07T09:17:00;10.98;;;2.70;;
54919;SDS011;63804;53.120;8.764;2023-08-07T09:19:28;12.48;;;3.20;;
54919;SDS011;63804;53.120;8.764;2023-08-07T09:21:56;9.57;;;2.95;;
54919;SDS011;63804;53.120;8.764;2023-08-07T09:24:23;10.68;;;3.28;;
54919;SDS011;63804;53.120;8.764;2023-08-07T09:26:51;13.50;;;3.33;;
54919;SDS011;63804;53.120;8.764;2023-08-07T09:29:20;15.85;;;3.17;;
54919;SDS011;63804;53.120;8.764;2023-08-07T09:31:49;16.70;;;3.30;;
54919;SDS011;63804;53.120;8.764;2023-08-07T09:34:19;13.75;;;3.30;;
54919;SDS011;63804;53.120;8.764;2023-08-07T09:36:47;15.10;;;3.30;;
54919;SDS011;63804;53.120;8.764;2023-08-07T09:39:15;9.48;;;3.25;;
54919;SDS011;63804;53.120;8.764;2023-08-07T09:41:42;13.95;;;3.53;;
54919;SDS011;63804;53.120;8.764;2023-08-07T09:44:09;12.65;;;3.28;;
54919;SDS011;63804;53.120;8.764;2023-08-07T09:46:41;13.95;;;3.17;;
54919;SDS011;63804;53.120;8.764;2023-08-07T09:49:09;13.57;;;3.13;;
54919;SDS011;63804;53.120;8.764;2023-08-07T09:51:47;12.27;;;2.97;;
54919;SDS011;63804;53.120;8.764;2023-08-07T09:54:15;12.93;;;3.03;;
54919;SDS011;63804;53.120;8.764;2023-08-07T09:56:43;9.73;;;2.88;;
54919;SDS011;63804;53.120;8.764;2023-08-07T09:59:10;7.75;;;2.80;;
54919;SDS011;63804;53.120;8.764;2023-08-07T10:01:38;9.48;;;2.75;;
54919;SDS011;63804;53.120;8.764;2023-08-07T10:04:07;12.60;;;2.47;;
54919;SDS011;63804;53.120;8.764;2023-08-07T10:06:35;9.98;;;2.35;;
54919;SDS011;63804;53.120;8.764;2023-08-07T10:09:03;9.57;;;1.92;;
54919;SDS011;63804;53.120;8.764;2023-08-07T10:11:31;11.93;;;2.70;;
54919;SDS011;63804;53.120;8.764;2023-08-07T10:13:59;10.65;;;2.30;;
54919;SDS011;63804;53.120;8.764;2023-08-07T10:16:27;9.60;;;2.60;;
54919;SDS011;63804;53.120;8.764;2023-08-07T10:18:55;11.88;;;2.70;;
54919;SDS011;63804;53.120;8.764;2023-08-07T10:21:23;12.80;;;2.80;;
54919;SDS011;63804;53.120;8.764;2023-08-07T10:23:52;11.30;;;3.80;;
54919;SDS011;63804;53.120;8.764;2023-08-07T10:26:21;11.68;;;3.55;;
54919;SDS011;63804;53.120;8.764;2023-08-07T10:28:50;10.82;;;3.03;;
54919;SDS011;63804;53.120;8.764;2023-08-07T10:31:20;9.02;;;2.60;;
54919;SDS011;63804;53.120;8.764;2023-08-07T10:33:49;10.90;;;2.65;;
54919;SDS011;63804;53.120;8.764;2023-08-07T10:36:17;11.50;;;2.63;;
54919;SDS011;63804;53.120;8.764;2023-08-07T10:38:48;11.68;;;2.90;;
54919;SDS011;63804;53.120;8.764;2023-08-07T10:41:17;10.35;;;3.50;;
54919;SDS011;63804;53.120;8.764;2023-08-07T10:43:47;12.95;;;3.92;;
54919;SDS011;63804;53.120;8.764;2023-08-07T10:46:15;9.13;;;2.30;;
54919;SDS011;63804;53.120;8.764;2023-08-07T10:48:56;8.55;;;2.30;;
54919;SDS011;63804;53.120;8.764;2023-08-07T10:51:28;5.57;;;2.25;;
54919;SDS011;63804;53.120;8.764;2023-08-07T10:53:58;7.78;;;2.40;;
54919;SDS011;63804;53.120;8.764;2023-08-07T10:56:32;7.22;;;2.00;;
54919;SDS011;63804;53.120;8.764;2023-08-07T11:01:43;9.38;;;2.47;;
54919;SDS011;63804;53.120;8.764;2023-08-07T11:04:11;11.63;;;2.85;;
54919;SDS011;63804;53.120;8.764;2023-08-07T11:06:41;9.30;;;2.83;;
54919;SDS011;63804;53.120;8.764;2023-08-07T11:09:09;12.25;;;2.97;;
54919;SDS011;63804;53.120;8.764;2023-08-07T11:11:37;8.93;;;2.53;;
54919;SDS011;63804;53.120;8.764;2023-08-07T11:14:11;7.75;;;2.45;;
54919;SDS011;63804;53.120;8.764;2023-08-07T11:16:43;10.77;;;2.72;;
54919;SDS011;63804;53.120;8.764;2023-08-07T11:19:11;7.30;;;2.20;;
54919;SDS011;63804;53.120;8.764;2023-08-07T11:21:40;10.15;;;2.58;;
54919;SDS011;63804;53.120;8.764;2023-08-07T11:24:12;10.25;;;2.50;;
54919;SDS011;63804;53.120;8.764;2023-08-07T11:26:42;10.70;;;3.20;;
54919;SDS011;63804;53.120;8.764;2023-08-07T11:29:10;13.65;;;2.95;;
54919;SDS011;63804;53.120;8.764;2023-08-07T11:31:42;10.65;;;2.90;;
54919;SDS011;63804;53.120;8.764;2023-08-07T11:34:10;11.77;;;3.45;;
54919;SDS011;63804;53.120;8.764;2023-08-07T11:36:41;10.50;;;3.38;;
54919;SDS011;63804;53.120;8.764;2023-08-07T11:39:10;10.68;;;3.55;;
54919;SDS011;63804;53.120;8.764;2023-08-07T11:41:38;9.82;;;2.65;;
54919;SDS011;63804;53.120;8.764;2023-08-07T11:44:08;12.75;;;2.97;;
54919;SDS011;63804;53.120;8.764;2023-08-07T11:46:36;13.13;;;3.30;;
54919;SDS011;63804;53.120;8.764;2023-08-07T11:49:04;15.05;;;4.43;;
54919;SDS011;63804;53.120;8.764;2023-08-07T11:51:32;12.05;;;4.00;;
54919;SDS011;63804;53.120;8.764;2023-08-07T11:53:59;10.73;;;3.50;;
54919;SDS011;63804;53.120;8.764;2023-08-07T11:56:28;9.75;;;3.08;;
54919;SDS011;63804;53.120;8.764;2023-08-07T11:58:56;13.13;;;3.42;;
54919;SDS011;63804;53.120;8.764;2023-08-07T12:01:24;10.40;;;3.78;;
54919;SDS011;63804;53.120;8.764;2023-08-07T12:03:54;12.45;;;3.60;;
54919;SDS011;63804;53.120;8.764;2023-08-07T12:06:23;11.63;;;2.83;;
54919;SDS011;63804;53.120;8.764;2023-08-07T12:08:55;10.00;;;2.70;;
54919;SDS011;63804;53.120;8.764;2023-08-07T12:11:24;9.88;;;2.67;;
54919;SDS011;63804;53.120;8.764;2023-08-07T12:13:51;10.57;;;2.53;;
54919;SDS011;63804;53.120;8.764;2023-08-07T12:16:19;8.45;;;2.30;;
54919;SDS011;63804;53.120;8.764;2023-08-07T12:18:51;7.65;;;1.77;;
54919;SDS011;63804;53.120;8.764;2023-08-07T12:21:22;10.25;;;2.42;;
54919;SDS011;63804;53.120;8.764;2023-08-07T12:23:54;13.00;;;2.70;;
54919;SDS011;63804;53.120;8.764;2023-08-07T12:26:22;15.18;;;4.18;;
54919;SDS011;63804;53.120;8.764;2023-08-07T12:28:50;12.13;;;3.78;;
54919;SDS011;63804;53.120;8.764;2023-08-07T12:31:18;10.75;;;2.88;;
54919;SDS011;63804;53.120;8.764;2023-08-07T12:33:46;13.65;;;4.00;;
54919;SDS011;63804;53.120;8.764;2023-08-07T12:36:14;17.23;;;5.00;;
54919;SDS011;63804;53.120;8.764;2023-08-07T12:38:44;14.50;;;4.70;;
54919;SDS011;63804;53.120;8.764;2023-08-07T12:41:12;10.15;;;2.50;;
54919;SDS011;63804;53.120;8.764;2023-08-07T12:43:44;7.95;;;1.90;;
54919;SDS011;63804;53.120;8.764;2023-08-07T12:46:11;7.05;;;1.98;;
54919;SDS011;63804;53.120;8.764;2023-08-07T12:48:41;10.57;;;2.22;;
54919;SDS011;63804;53.120;8.764;2023-08-07T12:51:09;6.00;;;1.92;;
54919;SDS011;63804;53.120;8.764;2023-08-07T12:53:36;9.73;;;1.95;;
54919;SDS011;63804;53.120;8.764;2023-08-07T12:56:03;7.30;;;1.80;;
54919;SDS011;63804;53.120;8.764;2023-08-07T12:58:32;9.75;;;1.80;;
54919;SDS011;63804;53.120;8.764;2023-08-07T13:01:00;8.88;;;2.00;;
54919;SDS011;63804;53.120;8.764;2023-08-07T13:03:28;10.00;;;2.47;;
54919;SDS011;63804;53.120;8.764;2023-08-07T13:05:56;9.63;;;2.80;;
54919;SDS011;63804;53.120;8.764;2023-08-07T13:08:24;12.38;;;2.90;;
54919;SDS011;63804;53.120;8.764;2023-08-07T13:10:51;13.13;;;2.83;;
54919;SDS011;63804;53.120;8.764;2023-08-07T13:13:18;11.10;;;3.22;;
54919;SDS011;63804;53.120;8.764;2023-08-07T13:15:46;12.93;;;3.15;;
54919;SDS011;63804;53.120;8.764;2023-08-07T13:18:13;9.25;;;2.70;;
54919;SDS011;63804;53.120;8.764;2023-08-07T13:20:43;8.48;;;2.20;;
54919;SDS011;63804;53.120;8.764;2023-08-07T13:23:11;7.80;;;2.25;;
54919;SDS011;63804;53.120;8.764;2023-08-07T13:25:39;8.02;;;2.28;;
54919;SDS011;63804;53.120;8.764;2023-08-07T13:28:06;11.77;;;2.63;;
54919;SDS011;63804;53.120;8.764;2023-08-07T13:30:33;7.70;;;2.60;;
54919;SDS011;63804;53.120;8.764;2023-08-07T13:33:03;10.63;;;2.85;;
54919;SDS011;63804;53.120;8.764;2023-08-07T13:35:31;10.45;;;2.95;;
54919;SDS011;63804;53.120;8.764;2023-08-07T13:38:00;11.13;;;3.22;;
54919;SDS011;63804;53.120;8.764;2023-08-07T13:40:32;12.23;;;3.13;;
54919;SDS011;63804;53.120;8.764;2023-08-07T13:42:59;11.07;;;2.80;;
54919;SDS011;63804;53.120;8.764;2023-08-07T13:45:29;13.05;;;2.72;;
54919;SDS011;63804;53.120;8.764;2023-08-07T13:47:57;5.90;;;2.00;;
54919;SDS011;63804;53.120;8.764;2023-08-07T13:50:24;8.35;;;2.38;;
54919;SDS011;63804;53.120;8.764;2023-08-07T13:52:52;8.48;;;2.38;;
54919;SDS011;63804;53.120;8.764;2023-08-07T13:55:34;8.55;;;2.38;;
54919;SDS011;63804;53.120;8.764;2023-08-07T13:58:01;8.20;;;2.60;;
54919;SDS011;63804;53.120;8.764;2023-08-07T14:00:30;8.60;;;2.40;;
54919;SDS011;63804;53.120;8.764;2023-08-07T14:02:58;9.57;;;2.25;;
54919;SDS011;63804;53.120;8.764;2023-08-07T14:05:25;7.38;;;2.30;;
54919;SDS011;63804;53.120;8.764;2023-08-07T14:07:53;8.85;;;2.38;;
54919;SDS011;63804;53.120;8.764;2023-08-07T14:10:20;9.32;;;2.67;;
54919;SDS011;63804;53.120;8.764;2023-08-07T14:12:48;8.00;;;2.30;;
54919;SDS011;63804;53.120;8.764;2023-08-07T14:15:15;9.77;;;2.40;;
54919;SDS011;63804;53.120;8.764;2023-08-07T14:17:42;10.35;;;2.55;;
54919;SDS011;63804;53.120;8.764;2023-08-07T14:20:10;9.23;;;2.20;;
54919;SDS011;63804;53.120;8.764;2023-08-07T14:22:38;9.60;;;2.40;;
54919;SDS011;63804;53.120;8.764;2023-08-07T14:25:05;7.25;;;2.17;;
54919;SDS011;63804;53.120;8.764;2023-08-07T14:27:33;8.73;;;2.30;;
54919;SDS011;63804;53.120;8.764;2023-08-07T14:30:01;4.65;;;1.88;;
54919;SDS011;63804;53.120;8.764;2023-08-07T14:32:29;9.98;;;2.30;;
54919;SDS011;63804;53.120;8.764;2023-08-07T14:34:56;9.15;;;2.30;;
54919;SDS011;63804;53.120;8.764;2023-08-07T14:37:24;6.90;;;2.13;;
54919;SDS011;63804;53.120;8.764;2023-08-07T14:39:51;7.03;;;1.80;;
54919;SDS011;63804;53.120;8.764;2023-08-07T14:42:18;7.15;;;2.28;;
54919;SDS011;63804;53.120;8.764;2023-08-07T14:44:46;9.55;;;2.55;;
54919;SDS011;63804;53.120;8.764;2023-08-07T14:47:13;9.50;;;2.33;;
54919;SDS011;63804;53.120;8.764;2023-08-07T14:49:41;6.93;;;2.22;;
54919;SDS011;63804;53.120;8.764;2023-08-07T14:52:08;7.75;;;1.88;;
54919;SDS011;63804;53.120;8.764;2023-08-07T14:54:35;12.27;;;2.10;;
54919;SDS011;63804;53.120;8.764;2023-08-07T14:57:03;8.00;;;2.22;;
54919;SDS011;63804;53.120;8.764;2023-08-07T14:59:31;4.85;;;1.85;;